ADDS METAR Data

Data at: 0509 UTC 20 Apr 2018

METAR for:KACK (Nantucket Mem Arpt, MA, US)
Text:KACK 200453Z AUTO 31013G20KT 10SM -RA SCT021 BKN055 OVC070 04/02 A2982 RMK AO2 SLP097 P0001 T00440022 400610044
Temperature: 4.4°C ( 40°F)
Dewpoint: 2.2°C ( 36°F) [RH = 86%]
Pressure (altimeter):29.82 inches Hg (1009.9 mb) [Sea level pressure: 1009.7 mb]
Winds:from the NW (310 degrees) at 15 MPH (13 knots; 6.7 m/s) gusting to 23 MPH (20 knots; 10.3 m/s)
Visibility:10 or more sm (16+ km)
Ceiling:5500 feet AGL
Clouds: scattered clouds at 2100 feet AGL, broken clouds at 5500 feet AGL, overcast cloud deck at 7000 feet AGL
Weather:-RA (light rain)
QC Flag:automated observation with no human augmentation